createdAt,value
2022-09-12T00:01:01.672Z,21.8
2022-09-12T00:11:01.748Z,21.7
2022-09-12T00:21:01.621Z,21.7
2022-09-12T00:31:01.752Z,21.7
2022-09-12T00:41:01.612Z,21.7
2022-09-12T00:51:01.746Z,21.7
2022-09-12T01:01:01.641Z,21.7
2022-09-12T01:11:01.736Z,21.7
2022-09-12T01:21:01.802Z,21.7
2022-09-12T01:31:01.734Z,21.6
2022-09-12T01:41:01.808Z,21.6
2022-09-12T01:51:01.721Z,21.6
2022-09-12T02:01:01.812Z,21.6
2022-09-12T02:11:01.719Z,21.5
2022-09-12T02:21:01.802Z,21.5
2022-09-12T02:31:01.810Z,21.5
2022-09-12T02:41:01.799Z,21.6
2022-09-12T02:51:01.915Z,21.5
2022-09-12T03:01:01.865Z,21.6
2022-09-12T03:11:01.919Z,21.6
2022-09-12T03:21:01.785Z,21.6
2022-09-12T03:31:01.948Z,21.5
2022-09-12T03:41:01.767Z,21.6
2022-09-12T03:51:01.904Z,21.4
2022-09-12T04:01:02.016Z,21.4
2022-09-12T04:11:01.898Z,21.4
2022-09-12T04:21:01.979Z,21.4
2022-09-12T04:31:01.960Z,21.4
2022-09-12T04:41:01.964Z,21.4
2022-09-12T04:51:01.896Z,21.5
2022-09-12T05:01:02.002Z,21.5
2022-09-12T05:11:01.897Z,21.5
2022-09-12T05:21:01.951Z,21.5
2022-09-12T05:31:02.134Z,21.5
2022-09-12T05:41:01.958Z,21.5
2022-09-12T05:51:02.079Z,21.4
2022-09-12T06:01:02.013Z,21.4
2022-09-12T06:11:02.435Z,21.4
2022-09-12T06:21:01.944Z,21.4
2022-09-12T06:31:02.120Z,21.4
2022-09-12T06:41:02.137Z,21.5
2022-09-12T06:51:02.064Z,21.4
2022-09-12T07:01:02.198Z,21.4
2022-09-12T07:11:02.056Z,21.4
2022-09-12T07:21:02.129Z,21.4
2022-09-12T07:31:02.074Z,21.4
2022-09-12T07:41:02.118Z,21.4
2022-09-12T07:51:02.043Z,21.4
2022-09-12T08:01:02.170Z,21.5
2022-09-12T08:11:02.058Z,21.5
2022-09-12T08:21:02.140Z,21.5
2022-09-12T08:31:02.288Z,21.5
2022-09-12T08:41:02.145Z,21.5
2022-09-12T08:51:02.269Z,21.6
2022-09-12T09:01:02.461Z,21.5
2022-09-12T09:11:02.344Z,21.6
2022-09-12T09:21:02.322Z,21.6
2022-09-12T09:31:02.385Z,21.6
2022-09-12T09:41:02.185Z,21.7
2022-09-12T09:51:02.324Z,21.7
2022-09-12T10:01:02.214Z,21.8
2022-09-12T10:11:02.304Z,21.9
2022-09-12T10:21:02.174Z,21.9
2022-09-12T10:31:02.329Z,21.9
2022-09-12T10:41:02.391Z,21.9
2022-09-12T10:51:02.308Z,21.9
2022-09-12T11:01:02.416Z,22
2022-09-12T11:11:02.289Z,22
2022-09-12T11:21:02.360Z,22
2022-09-12T11:31:02.348Z,22
2022-09-12T11:41:02.386Z,22
2022-09-12T11:51:02.294Z,22
2022-09-12T12:01:02.362Z,22.2
2022-09-12T12:11:02.481Z,22
2022-09-12T12:21:02.371Z,22
2022-09-12T12:31:02.573Z,22
2022-09-12T12:41:02.356Z,22
2022-09-12T12:51:02.474Z,22
2022-09-12T13:01:02.400Z,22
2022-09-12T13:11:02.551Z,22
2022-09-12T13:21:02.557Z,22
2022-09-12T13:31:02.589Z,22
2022-09-12T13:41:02.626Z,22
2022-09-12T13:51:02.639Z,22
2022-09-12T14:01:02.534Z,22
2022-09-12T14:11:02.450Z,22
2022-09-12T14:21:02.546Z,22
2022-09-12T14:31:02.513Z,22
2022-09-12T14:41:02.523Z,21.9
2022-09-12T14:51:02.650Z,21.9
2022-09-12T15:01:02.555Z,21.9
2022-09-12T15:11:02.682Z,21.8
2022-09-12T15:21:02.541Z,21.9
2022-09-12T15:31:02.748Z,21.8
2022-09-12T15:41:02.555Z,21.9
2022-09-12T15:51:02.695Z,21.9
2022-09-12T16:01:02.611Z,21.9
2022-09-12T16:11:02.681Z,21.9
2022-09-12T16:21:02.628Z,21.9
2022-09-12T16:31:02.995Z,21.9
2022-09-12T16:41:02.722Z,21.9
2022-09-12T16:51:02.868Z,21.9
2022-09-12T17:01:02.856Z,21.9
2022-09-12T17:11:02.707Z,21.9
2022-09-12T17:21:02.807Z,21.9
2022-09-12T17:31:02.774Z,21.9
2022-09-12T17:41:03.295Z,21.8
2022-09-12T17:51:02.762Z,21.8
2022-09-12T18:01:02.771Z,21.8
2022-09-12T18:11:03.037Z,21.8
2022-09-12T18:21:02.739Z,21.8
2022-09-12T18:31:02.912Z,21.7
2022-09-12T18:41:02.677Z,21.8
2022-09-12T18:51:02.801Z,21.8
2022-09-12T19:01:02.944Z,21.8
2022-09-12T19:11:02.876Z,21.7
2022-09-12T19:21:02.866Z,21.7
2022-09-12T19:31:02.851Z,21.7
2022-09-12T19:41:02.851Z,21.7
2022-09-12T19:51:02.780Z,21.7
2022-09-12T20:01:02.859Z,21.7
2022-09-12T20:11:02.775Z,21.7
2022-09-12T20:21:02.858Z,21.7
2022-09-12T20:31:03.029Z,21.7
2022-09-12T20:41:03.325Z,21.7
2022-09-12T20:51:02.923Z,21.6
2022-09-12T21:01:03.045Z,21.6
2022-09-12T21:11:02.978Z,21.6
2022-09-12T21:21:02.985Z,21.6
2022-09-12T21:31:03.112Z,21.6
2022-09-12T21:41:02.957Z,21.4
2022-09-12T21:51:03.072Z,21.5
2022-09-12T22:01:03.007Z,21.5
2022-09-12T22:11:03.050Z,21.5
2022-09-12T22:21:02.979Z,21.4
2022-09-12T22:31:03.258Z,21.4
2022-09-12T22:41:02.929Z,21.4
2022-09-12T22:51:03.053Z,21.4
2022-09-12T23:01:02.978Z,21.3
2022-09-12T23:11:03.043Z,21.3
2022-09-12T23:21:03.126Z,21.3
2022-09-12T23:31:03.096Z,21.3
2022-09-12T23:41:03.116Z,21.3
2022-09-12T23:51:03.035Z,21.3
